Time;durP1;ratioP1;P1;durP2;ratioP2;P2;SDS_P1;SDS_P2;PMS_P1;PMS_P2;Temp;Humidity;BMP_temperature;BMP_pressure;BME280_temperature;BME280_humidity;BME280_pressure;Samples;Min_cycle;Max_cycle;Signal;HPM_P1;HPM_P2
2023/01/08 00:00:54;;;;;;;0.20;0.10;;;;;;;;;;5087783;27;20046;-86
2023/01/08 00:03:20;;;;;;;0.20;0.20;;;;;;;;;;5086894;27;20137;-87
2023/01/08 00:05:46;;;;;;;0.20;0.10;;;;;;;;;;5084072;27;20055;-87
2023/01/08 00:08:12;;;;;;;0.20;0.10;;;;;;;;;;5102259;27;20633;-84
2023/01/08 00:10:39;;;;;;;0.20;0.10;;;;;;;;;;5085056;27;20083;-86
2023/01/08 00:13:06;;;;;;;0.20;0.10;;;;;;;;;;5093161;28;20481;-86
2023/01/08 00:15:33;;;;;;;0.20;0.20;;;;;;;;;;5095624;27;20074;-85
2023/01/08 00:17:59;;;;;;;0.20;0.20;;;;;;;;;;5132731;22;20057;-82
2023/01/08 00:20:25;;;;;;;0.20;0.10;;;;;;;;;;5116269;27;20110;-79
2023/01/08 00:22:52;;;;;;;0.30;0.30;;;;;;;;;;5115463;27;20114;-84
2023/01/08 00:25:19;;;;;;;0.22;0.13;;;;;;;;;;5136508;27;20062;-79
2023/01/08 00:27:45;;;;;;;0.20;0.10;;;;;;;;;;5106138;27;20042;-83
2023/01/08 00:30:13;;;;;;;0.20;0.10;;;;;;;;;;5103291;27;20035;-84
2023/01/08 00:32:39;;;;;;;0.22;0.13;;;;;;;;;;5096113;27;20039;-81
2023/01/08 00:35:05;;;;;;;0.20;0.10;;;;;;;;;;5102950;27;20084;-82
2023/01/08 00:37:31;;;;;;;1.05;0.68;;;;;;;;;;5124912;27;20125;-81
2023/01/08 00:39:57;;;;;;;0.20;0.10;;;;;;;;;;5107114;27;20067;-81
2023/01/08 00:42:23;;;;;;;0.20;0.10;;;;;;;;;;5102659;27;20070;-84
2023/01/08 00:44:49;;;;;;;0.20;0.10;;;;;;;;;;5092318;27;20104;-82
2023/01/08 00:47:15;;;;;;;0.20;0.10;;;;;;;;;;5097441;27;20046;-82
2023/01/08 00:49:41;;;;;;;0.20;0.10;;;;;;;;;;5104363;27;20090;-83
2023/01/08 00:52:07;;;;;;;0.20;0.10;;;;;;;;;;5123747;27;20042;-84
2023/01/08 00:54:33;;;;;;;0.20;0.10;;;;;;;;;;5122410;27;20038;-82
2023/01/08 00:56:59;;;;;;;0.20;0.10;;;;;;;;;;5117730;27;20037;-84
2023/01/08 00:59:25;;;;;;;0.22;0.22;;;;;;;;;;5095790;27;20292;-81
2023/01/08 01:01:53;;;;;;;0.20;0.10;;;;;;;;;;5117881;27;20031;-83
2023/01/08 01:04:19;;;;;;;0.20;0.10;;;;;;;;;;5107220;27;20042;-85
2023/01/08 01:06:45;;;;;;;0.20;0.20;;;;;;;;;;5117173;27;20043;-84
2023/01/08 01:09:11;;;;;;;0.20;0.20;;;;;;;;;;5093622;27;20114;-82
2023/01/08 01:11:37;;;;;;;0.20;0.10;;;;;;;;;;5130691;27;20166;-82
2023/01/08 01:14:03;;;;;;;0.20;0.10;;;;;;;;;;5125542;27;20062;-80
2023/01/08 01:16:29;;;;;;;0.20;0.10;;;;;;;;;;5104027;27;20074;-83
2023/01/08 01:18:56;;;;;;;0.20;0.10;;;;;;;;;;5120978;27;20031;-81
2023/01/08 01:21:26;;;;;;;0.20;0.10;;;;;;;;;;5106859;27;20034;-80
2023/01/08 01:23:53;;;;;;;0.20;0.10;;;;;;;;;;5126035;27;20453;-83
2023/01/08 01:26:20;;;;;;;0.20;0.10;;;;;;;;;;5141469;27;20212;-83
2023/01/08 01:28:47;;;;;;;0.20;0.10;;;;;;;;;;5106454;27;20046;-81
2023/01/08 01:31:13;;;;;;;0.20;0.10;;;;;;;;;;5127407;27;20042;-82
2023/01/08 01:33:42;;;;;;;0.20;0.10;;;;;;;;;;5116721;27;20625;-85
2023/01/08 01:36:09;;;;;;;0.20;0.10;;;;;;;;;;5111753;27;20047;-82
2023/01/08 01:38:35;;;;;;;0.20;0.10;;;;;;;;;;5113094;27;20096;-82
2023/01/08 01:41:01;;;;;;;0.20;0.10;;;;;;;;;;5103279;27;20505;-84
2023/01/08 01:43:41;;;;;;;0.20;0.10;;;;;;;;;;5107142;27;20360;-81
2023/01/08 01:46:20;;;;;;;0.20;0.10;;;;;;;;;;5104154;27;20047;-81
2023/01/08 01:48:47;;;;;;;0.20;0.10;;;;;;;;;;5121950;27;20047;-82
2023/01/08 01:51:13;;;;;;;0.20;0.10;;;;;;;;;;5116778;27;20073;-79
2023/01/08 01:53:40;;;;;;;0.20;0.10;;;;;;;;;;5119010;27;20046;-82
2023/01/08 01:56:07;;;;;;;0.20;0.10;;;;;;;;;;5103954;27;20054;-82
2023/01/08 01:58:33;;;;;;;0.20;0.10;;;;;;;;;;5121608;27;20031;-82
2023/01/08 02:01:04;;;;;;;0.20;0.20;;;;;;;;;;5114755;27;20572;-81
2023/01/08 02:03:33;;;;;;;0.20;0.10;;;;;;;;;;5121052;27;20038;-79
2023/01/08 02:06:11;;;;;;;0.20;0.20;;;;;;;;;;5132116;27;20030;-82
2023/01/08 02:08:41;;;;;;;0.20;0.10;;;;;;;;;;5112417;27;20447;-81
2023/01/08 02:11:11;;;;;;;0.20;0.10;;;;;;;;;;5135911;27;20050;-80
2023/01/08 02:13:39;;;;;;;0.20;0.10;;;;;;;;;;5109263;27;20508;-78
2023/01/08 02:16:11;;;;;;;0.20;0.10;;;;;;;;;;5096764;27;20052;-82
2023/01/08 02:18:46;;;;;;;0.20;0.10;;;;;;;;;;5099266;27;20039;-81
2023/01/08 02:21:31;;;;;;;0.20;0.10;;;;;;;;;;5116901;27;20027;-82
2023/01/08 02:24:10;;;;;;;0.20;0.10;;;;;;;;;;5108582;27;20054;-84
2023/01/08 02:26:36;;;;;;;0.20;0.10;;;;;;;;;;5111428;27;20493;-81
2023/01/08 02:29:17;;;;;;;0.20;0.10;;;;;;;;;;5098817;27;20062;-82
2023/01/08 02:31:43;;;;;;;0.20;0.10;;;;;;;;;;5117817;27;20524;-81
2023/01/08 02:34:10;;;;;;;0.20;0.10;;;;;;;;;;5117646;27;20063;-82
2023/01/08 02:36:36;;;;;;;0.20;0.10;;;;;;;;;;5117027;27;20126;-81
2023/01/08 02:39:20;;;;;;;0.20;0.10;;;;;;;;;;5102019;27;20096;-82
2023/01/08 02:41:50;;;;;;;0.20;0.10;;;;;;;;;;5102570;27;20276;-79
2023/01/08 02:44:19;;;;;;;0.20;0.10;;;;;;;;;;5093201;27;20425;-81
2023/01/08 02:46:45;;;;;;;0.20;0.10;;;;;;;;;;5135840;27;20030;-82
2023/01/08 02:49:12;;;;;;;0.20;0.10;;;;;;;;;;5097552;27;20262;-82
2023/01/08 02:51:47;;;;;;;0.20;0.10;;;;;;;;;;5114530;27;20034;-83
2023/01/08 02:54:17;;;;;;;0.20;0.10;;;;;;;;;;5095982;27;20046;-81
2023/01/08 02:56:45;;;;;;;0.20;0.10;;;;;;;;;;5107484;27;20118;-82
2023/01/08 02:59:13;;;;;;;0.20;0.10;;;;;;;;;;5099923;27;20699;-82
2023/01/08 03:01:40;;;;;;;0.20;0.10;;;;;;;;;;5138190;27;20825;-81
2023/01/08 03:04:08;;;;;;;0.20;0.10;;;;;;;;;;5141711;27;20090;-82
2023/01/08 03:06:34;;;;;;;0.20;0.10;;;;;;;;;;5110480;27;20133;-81
2023/01/08 03:09:00;;;;;;;0.20;0.10;;;;;;;;;;5103009;27;20516;-82
2023/01/08 03:11:30;;;;;;;0.20;0.10;;;;;;;;;;5121227;27;20381;-82
2023/01/08 03:13:59;;;;;;;0.20;0.10;;;;;;;;;;5116894;27;20106;-82
2023/01/08 03:16:44;;;;;;;0.20;0.10;;;;;;;;;;5099081;27;20374;-82
2023/01/08 03:19:15;;;;;;;0.20;0.10;;;;;;;;;;5129184;27;20027;-81
2023/01/08 03:21:43;;;;;;;4.95;0.30;;;;;;;;;;5099059;27;20042;-83
2023/01/08 03:24:11;;;;;;;0.20;0.10;;;;;;;;;;5093644;27;20035;-81
2023/01/08 03:26:38;;;;;;;0.20;0.10;;;;;;;;;;5131826;27;20050;-83
2023/01/08 03:29:06;;;;;;;0.20;0.10;;;;;;;;;;5101234;27;20435;-81
2023/01/08 03:31:34;;;;;;;0.20;0.10;;;;;;;;;;5089600;27;20049;-80
2023/01/08 03:34:01;;;;;;;0.20;0.10;;;;;;;;;;5091249;27;20041;-83
2023/01/08 03:36:29;;;;;;;0.20;0.10;;;;;;;;;;5091148;27;20050;-82
2023/01/08 03:38:59;;;;;;;0.20;0.10;;;;;;;;;;5117780;27;20046;-81
2023/01/08 03:41:27;;;;;;;0.20;0.10;;;;;;;;;;5133010;27;20027;-82
2023/01/08 03:43:53;;;;;;;0.20;0.10;;;;;;;;;;5115395;27;20038;-82
2023/01/08 03:46:23;;;;;;;0.20;0.10;;;;;;;;;;5111404;27;20035;-82
2023/01/08 03:48:50;;;;;;;0.20;0.10;;;;;;;;;;5108703;27;20043;-82
2023/01/08 03:51:17;;;;;;;0.20;0.10;;;;;;;;;;5090422;27;20043;-81
2023/01/08 03:53:43;;;;;;;0.20;0.10;;;;;;;;;;5105543;27;20038;-80
2023/01/08 03:56:09;;;;;;;0.20;0.10;;;;;;;;;;5139964;27;20124;-82
2023/01/08 03:58:35;;;;;;;0.20;0.10;;;;;;;;;;5114949;27;20035;-82
2023/01/08 04:01:01;;;;;;;0.20;0.10;;;;;;;;;;5101547;27;20087;-81
2023/01/08 04:03:27;;;;;;;0.20;0.10;;;;;;;;;;5094215;27;20039;-82
2023/01/08 04:05:53;;;;;;;0.20;0.10;;;;;;;;;;5113139;27;20094;-81
2023/01/08 04:08:19;;;;;;;0.20;0.10;;;;;;;;;;5117680;27;20074;-80
2023/01/08 04:10:45;;;;;;;0.20;0.10;;;;;;;;;;5102383;27;20039;-81
2023/01/08 04:13:11;;;;;;;0.25;0.20;;;;;;;;;;5116764;27;20031;-82
2023/01/08 04:15:37;;;;;;;0.20;0.10;;;;;;;;;;5097419;27;20030;-82
2023/01/08 04:18:03;;;;;;;0.20;0.10;;;;;;;;;;5137412;27;20031;-82
2023/01/08 04:20:29;;;;;;;0.20;0.15;;;;;;;;;;5112604;27;20408;-82
2023/01/08 04:22:55;;;;;;;0.20;0.10;;;;;;;;;;5106357;27;20621;-84
2023/01/08 04:25:21;;;;;;;0.20;0.10;;;;;;;;;;5085028;27;20039;-81
2023/01/08 04:27:47;;;;;;;0.20;0.10;;;;;;;;;;5121960;27;20482;-80
2023/01/08 04:30:13;;;;;;;0.20;0.10;;;;;;;;;;5090927;27;20039;-81
2023/01/08 04:32:39;;;;;;;0.20;0.20;;;;;;;;;;5119361;27;20148;-82
2023/01/08 04:35:06;;;;;;;0.20;0.10;;;;;;;;;;5100160;27;20168;-83
2023/01/08 04:37:31;;;;;;;0.20;0.10;;;;;;;;;;5100188;27;20039;-80
2023/01/08 04:39:57;;;;;;;0.20;0.10;;;;;;;;;;5082534;27;20482;-82
2023/01/08 04:42:23;;;;;;;0.20;0.10;;;;;;;;;;5114783;27;20030;-81
2023/01/08 04:44:51;;;;;;;0.20;0.10;;;;;;;;;;5100934;27;20035;-82
2023/01/08 04:47:17;;;;;;;0.20;0.10;;;;;;;;;;5108726;27;20401;-81
2023/01/08 04:49:43;;;;;;;0.20;0.10;;;;;;;;;;5096394;27;20042;-81
2023/01/08 04:52:09;;;;;;;0.20;0.10;;;;;;;;;;5112203;27;20043;-83
2023/01/08 04:54:35;;;;;;;0.20;0.10;;;;;;;;;;5090624;27;20043;-82
2023/01/08 04:57:01;;;;;;;0.20;0.10;;;;;;;;;;5105834;27;20770;-80
2023/01/08 04:59:27;;;;;;;0.20;0.10;;;;;;;;;;5124735;27;20031;-81
2023/01/08 05:01:55;;;;;;;0.20;0.10;;;;;;;;;;5106931;27;20090;-83
2023/01/08 05:04:21;;;;;;;0.20;0.10;;;;;;;;;;5120332;27;20500;-81
2023/01/08 05:06:47;;;;;;;0.20;0.10;;;;;;;;;;5111867;27;20030;-83
2023/01/08 05:09:13;;;;;;;0.25;0.25;;;;;;;;;;5126094;27;20079;-80
2023/01/08 05:11:39;;;;;;;0.20;0.10;;;;;;;;;;5086182;27;20043;-81
2023/01/08 05:14:05;;;;;;;0.20;0.10;;;;;;;;;;5090157;27;20042;-84
2023/01/08 05:16:32;;;;;;;0.20;0.10;;;;;;;;;;5099738;27;20233;-81
2023/01/08 05:18:58;;;;;;;0.20;0.10;;;;;;;;;;5113403;27;20042;-82
2023/01/08 05:21:24;;;;;;;0.20;0.10;;;;;;;;;;5117097;27;20028;-82
2023/01/08 05:23:50;;;;;;;0.20;0.10;;;;;;;;;;5135268;27;20035;-83
2023/01/08 05:26:18;;;;;;;0.20;0.10;;;;;;;;;;5088424;27;20043;-81
2023/01/08 05:28:44;;;;;;;0.20;0.10;;;;;;;;;;5134065;27;20064;-83
2023/01/08 05:31:10;;;;;;;0.20;0.10;;;;;;;;;;5101938;27;20037;-84
2023/01/08 05:33:37;;;;;;;0.20;0.10;;;;;;;;;;5115367;27;20054;-83
2023/01/08 05:36:07;;;;;;;0.20;0.10;;;;;;;;;;5100522;27;20047;-81
2023/01/08 05:38:33;;;;;;;0.20;0.10;;;;;;;;;;5110768;27;20389;-83
2023/01/08 05:40:59;;;;;;;0.20;0.10;;;;;;;;;;5100110;27;20198;-81
2023/01/08 05:43:25;;;;;;;0.20;0.10;;;;;;;;;;5124451;27;20039;-81
2023/01/08 05:45:51;;;;;;;0.22;0.22;;;;;;;;;;5090399;27;20122;-82
2023/01/08 05:48:17;;;;;;;0.20;0.10;;;;;;;;;;5135897;27;20030;-83
2023/01/08 05:50:43;;;;;;;0.20;0.10;;;;;;;;;;5140045;27;20031;-82
2023/01/08 05:53:09;;;;;;;0.20;0.10;;;;;;;;;;5107847;27;20041;-83
2023/01/08 05:55:36;;;;;;;0.20;0.10;;;;;;;;;;5103469;27;20050;-83
2023/01/08 05:58:05;;;;;;;0.20;0.10;;;;;;;;;;5092670;27;20037;-83
2023/01/08 06:00:32;;;;;;;0.20;0.10;;;;;;;;;;5098844;27;20397;-83
2023/01/08 06:02:58;;;;;;;0.20;0.10;;;;;;;;;;5099060;27;20505;-83
2023/01/08 06:05:24;;;;;;;0.20;0.10;;;;;;;;;;5098722;27;20042;-82
2023/01/08 06:07:50;;;;;;;0.20;0.10;;;;;;;;;;5096775;27;20039;-81
2023/01/08 06:10:16;;;;;;;0.20;0.10;;;;;;;;;;5096329;27;20522;-81
2023/01/08 06:12:42;;;;;;;0.43;0.35;;;;;;;;;;5104085;27;20031;-80
2023/01/08 06:15:09;;;;;;;0.20;0.10;;;;;;;;;;5133548;27;20043;-80
2023/01/08 06:17:35;;;;;;;0.20;0.10;;;;;;;;;;5124618;22;20048;-83
2023/01/08 06:20:01;;;;;;;0.20;0.10;;;;;;;;;;5065902;28;20501;-86
2023/01/08 06:22:28;;;;;;;0.22;0.22;;;;;;;;;;5046333;28;20028;-86
2023/01/08 06:24:54;;;;;;;0.20;0.10;;;;;;;;;;5059354;28;20028;-85
2023/01/08 06:27:20;;;;;;;0.20;0.10;;;;;;;;;;5081625;28;20132;-86
2023/01/08 06:29:46;;;;;;;1.08;0.52;;;;;;;;;;5059565;28;20468;-84
2023/01/08 06:32:12;;;;;;;0.20;0.10;;;;;;;;;;5059289;28;20040;-88
2023/01/08 06:34:38;;;;;;;0.20;0.10;;;;;;;;;;5065082;28;20040;-86
2023/01/08 06:37:04;;;;;;;0.20;0.10;;;;;;;;;;5060831;28;20474;-85
2023/01/08 06:39:30;;;;;;;0.20;0.10;;;;;;;;;;5044592;28;20040;-85
2023/01/08 06:41:56;;;;;;;0.20;0.10;;;;;;;;;;5071155;28;20086;-85
2023/01/08 06:44:22;;;;;;;0.20;0.10;;;;;;;;;;5043818;28;20043;-85
2023/01/08 06:46:48;;;;;;;0.20;0.10;;;;;;;;;;5039467;28;20118;-86
2023/01/08 06:49:21;;;;;;;0.20;0.10;;;;;;;;;;5054274;28;20123;-86
2023/01/08 06:51:50;;;;;;;0.20;0.20;;;;;;;;;;5038761;28;20189;-84
2023/01/08 06:54:19;;;;;;;0.20;0.10;;;;;;;;;;5052088;28;20625;-85
2023/01/08 06:56:48;;;;;;;0.20;0.10;;;;;;;;;;5035212;28;20196;-84
2023/01/08 06:59:14;;;;;;;0.20;0.10;;;;;;;;;;5035211;28;20044;-84
2023/01/08 07:01:43;;;;;;;0.20;0.10;;;;;;;;;;5057357;28;20549;-88
2023/01/08 07:04:09;;;;;;;0.20;0.10;;;;;;;;;;5077096;28;20074;-87
2023/01/08 07:06:36;;;;;;;0.20;0.10;;;;;;;;;;5059561;28;20047;-87
2023/01/08 07:09:02;;;;;;;0.20;0.10;;;;;;;;;;5041122;28;20042;-87
2023/01/08 07:11:28;;;;;;;0.20;0.10;;;;;;;;;;5056694;28;20082;-85
2023/01/08 07:13:55;;;;;;;0.20;0.10;;;;;;;;;;5038668;28;20043;-84
2023/01/08 07:16:24;;;;;;;0.20;0.10;;;;;;;;;;5056008;28;21646;-85
2023/01/08 07:19:05;;;;;;;0.20;0.10;;;;;;;;;;5050732;28;20179;-87
2023/01/08 07:21:32;;;;;;;0.20;0.10;;;;;;;;;;5039433;28;20036;-85
2023/01/08 07:23:58;;;;;;;0.20;0.10;;;;;;;;;;5071858;28;20036;-86
2023/01/08 07:26:24;;;;;;;0.20;0.10;;;;;;;;;;5058611;28;20097;-86
2023/01/08 07:28:50;;;;;;;0.20;0.10;;;;;;;;;;5057800;28;20036;-88
2023/01/08 07:31:19;;;;;;;0.20;0.10;;;;;;;;;;5057413;28;20041;-89
2023/01/08 07:33:45;;;;;;;0.20;0.10;;;;;;;;;;5056644;28;20046;-86
2023/01/08 07:36:13;;;;;;;0.20;0.10;;;;;;;;;;5038745;28;20440;-87
2023/01/08 07:38:39;;;;;;;0.20;0.10;;;;;;;;;;5035826;28;20040;-85
2023/01/08 07:41:05;;;;;;;0.20;0.10;;;;;;;;;;5037153;28;20040;-85
2023/01/08 07:43:34;;;;;;;0.20;0.10;;;;;;;;;;5036441;28;20478;-87
2023/01/08 07:46:03;;;;;;;0.20;0.10;;;;;;;;;;5040703;28;20406;-90
2023/01/08 07:48:29;;;;;;;0.75;0.30;;;;;;;;;;5058316;28;20510;-87
2023/01/08 07:51:00;;;;;;;0.20;0.10;;;;;;;;;;5074958;28;20044;-86
2023/01/08 07:53:26;;;;;;;0.20;0.10;;;;;;;;;;5046308;28;20050;-86
2023/01/08 07:55:54;;;;;;;0.20;0.10;;;;;;;;;;5045741;28;20048;-87
2023/01/08 07:58:20;;;;;;;0.20;0.10;;;;;;;;;;5060448;28;20150;-90
2023/01/08 08:00:46;;;;;;;0.20;0.10;;;;;;;;;;5046179;28;20162;-88
2023/01/08 08:03:13;;;;;;;0.20;0.10;;;;;;;;;;5043073;28;20402;-86
2023/01/08 08:05:39;;;;;;;0.20;0.20;;;;;;;;;;5057409;28;20048;-84
2023/01/08 08:08:09;;;;;;;0.20;0.10;;;;;;;;;;5073266;28;20037;-85
2023/01/08 08:10:35;;;;;;;0.20;0.10;;;;;;;;;;5041550;28;20037;-87
2023/01/08 08:13:01;;;;;;;0.20;0.10;;;;;;;;;;5055728;28;20418;-86
2023/01/08 08:15:27;;;;;;;0.20;0.10;;;;;;;;;;5058148;28;20180;-84
2023/01/08 08:17:59;;;;;;;0.20;0.10;;;;;;;;;;5059727;28;20067;-87
2023/01/08 08:20:28;;;;;;;0.20;0.10;;;;;;;;;;5056933;28;20044;-84
2023/01/08 08:23:05;;;;;;;0.20;0.10;;;;;;;;;;5046164;28;20040;-88
2023/01/08 08:25:31;;;;;;;0.20;0.10;;;;;;;;;;5060672;28;20047;-87
2023/01/08 08:27:58;;;;;;;0.20;0.10;;;;;;;;;;5059666;28;20039;-84
2023/01/08 08:30:25;;;;;;;0.20;0.10;;;;;;;;;;5042581;28;20067;-85
2023/01/08 08:32:51;;;;;;;0.20;0.10;;;;;;;;;;5060090;28;20040;-87
2023/01/08 08:35:17;;;;;;;0.20;0.10;;;;;;;;;;5053339;28;20043;-86
2023/01/08 08:37:43;;;;;;;0.20;0.10;;;;;;;;;;5037695;28;20315;-87
2023/01/08 08:40:09;;;;;;;0.20;0.10;;;;;;;;;;5055143;28;20091;-87
2023/01/08 08:42:36;;;;;;;0.20;0.10;;;;;;;;;;5072809;28;20613;-90
2023/01/08 08:45:02;;;;;;;0.20;0.10;;;;;;;;;;5042228;28;20068;-86
2023/01/08 08:47:28;;;;;;;0.20;0.10;;;;;;;;;;5055133;28;20032;-87
2023/01/08 08:49:54;;;;;;;0.20;0.10;;;;;;;;;;5038902;28;20521;-87
2023/01/08 08:52:20;;;;;;;0.20;0.10;;;;;;;;;;5036771;28;20038;-86
2023/01/08 08:54:46;;;;;;;0.20;0.10;;;;;;;;;;5057420;28;20908;-87
2023/01/08 08:57:18;;;;;;;0.20;0.10;;;;;;;;;;5056989;28;20032;-87
2023/01/08 08:59:44;;;;;;;0.20;0.10;;;;;;;;;;5050336;28;20107;-87
2023/01/08 09:02:16;;;;;;;0.20;0.10;;;;;;;;;;5055469;28;20401;-87
2023/01/08 09:04:44;;;;;;;0.20;0.10;;;;;;;;;;5076278;28;20707;-87
2023/01/08 09:07:31;;;;;;;0.20;0.10;;;;;;;;;;5043930;28;20139;-88
2023/01/08 09:09:57;;;;;;;0.20;0.10;;;;;;;;;;5073058;28;20124;-86
2023/01/08 09:12:29;;;;;;;0.35;0.10;;;;;;;;;;5059669;28;20067;-87
2023/01/08 09:14:57;;;;;;;0.20;0.10;;;;;;;;;;5056200;28;20075;-88
2023/01/08 09:17:26;;;;;;;0.20;0.10;;;;;;;;;;5056913;28;20040;-88
2023/01/08 09:19:52;;;;;;;0.20;0.10;;;;;;;;;;5054611;28;20037;-84
2023/01/08 09:22:19;;;;;;;0.20;0.10;;;;;;;;;;5078851;28;20321;-86
2023/01/08 09:24:45;;;;;;;0.20;0.10;;;;;;;;;;5074870;28;20399;-86
2023/01/08 09:27:22;;;;;;;0.20;0.10;;;;;;;;;;5056835;28;20549;-85
2023/01/08 09:29:48;;;;;;;0.20;0.10;;;;;;;;;;5055826;28;20050;-87
2023/01/08 09:32:14;;;;;;;0.20;0.10;;;;;;;;;;5047794;28;20036;-91
2023/01/08 09:34:40;;;;;;;0.20;0.10;;;;;;;;;;5061060;28;20827;-88
2023/01/08 09:37:07;;;;;;;0.20;0.10;;;;;;;;;;5061547;28;20032;-90
2023/01/08 09:39:33;;;;;;;0.20;0.20;;;;;;;;;;5056524;28;20036;-85
2023/01/08 09:42:04;;;;;;;0.20;0.10;;;;;;;;;;5066487;28;20486;-87
2023/01/08 09:44:41;;;;;;;0.20;0.10;;;;;;;;;;5062533;28;20047;-87
2023/01/08 09:47:14;;;;;;;0.20;0.10;;;;;;;;;;5047110;28;20044;-90
2023/01/08 09:49:42;;;;;;;0.20;0.10;;;;;;;;;;5046624;28;20376;-87
2023/01/08 09:52:12;;;;;;;0.20;0.10;;;;;;;;;;5044350;28;20036;-86
2023/01/08 09:54:39;;;;;;;0.20;0.10;;;;;;;;;;5057207;28;20075;-85
2023/01/08 09:57:05;;;;;;;0.20;0.10;;;;;;;;;;5058412;28;20032;-88
2023/01/08 09:59:31;;;;;;;0.20;0.10;;;;;;;;;;5059940;28;20042;-85
2023/01/08 10:01:57;;;;;;;0.20;0.10;;;;;;;;;;5058103;28;20067;-86
2023/01/08 10:04:26;;;;;;;0.30;0.20;;;;;;;;;;5050602;28;20032;-87
2023/01/08 10:07:03;;;;;;;0.20;0.10;;;;;;;;;;5065077;28;20568;-89
2023/01/08 10:09:30;;;;;;;0.20;0.10;;;;;;;;;;5046903;28;20075;-86
2023/01/08 10:12:05;;;;;;;0.20;0.10;;;;;;;;;;5065036;28;20040;-88
2023/01/08 10:14:33;;;;;;;0.20;0.10;;;;;;;;;;5047300;28;20044;-87
2023/01/08 10:17:28;;;;;;;0.20;0.10;;;;;;;;;;5047489;28;20070;-89
2023/01/08 10:19:55;;;;;;;0.20;0.10;;;;;;;;;;4976137;28;20604;-86
2023/01/08 10:22:24;;;;;;;0.20;0.10;;;;;;;;;;5045262;28;20242;-88
2023/01/08 10:25:02;;;;;;;0.20;0.10;;;;;;;;;;5064256;28;20113;-87
2023/01/08 10:27:28;;;;;;;0.20;0.10;;;;;;;;;;5041719;28;20480;-86
2023/01/08 10:30:04;;;;;;;0.20;0.10;;;;;;;;;;5043069;28;20576;-86
2023/01/08 10:32:33;;;;;;;0.20;0.10;;;;;;;;;;5040987;28;20044;-87
2023/01/08 10:35:02;;;;;;;0.20;0.10;;;;;;;;;;5042741;28;20043;-87
2023/01/08 10:37:31;;;;;;;0.20;0.10;;;;;;;;;;5057613;28;20477;-86
2023/01/08 10:40:03;;;;;;;0.20;0.10;;;;;;;;;;5041644;28;20312;-84
2023/01/08 10:42:33;;;;;;;0.20;0.10;;;;;;;;;;5041763;28;20135;-85
2023/01/08 10:45:01;;;;;;;0.20;0.10;;;;;;;;;;5059791;28;20043;-87
2023/01/08 10:47:31;;;;;;;0.20;0.10;;;;;;;;;;5056154;28;20051;-86
2023/01/08 10:50:01;;;;;;;0.20;0.10;;;;;;;;;;5043452;28;20069;-86
2023/01/08 10:52:31;;;;;;;0.20;0.10;;;;;;;;;;5079801;28;20114;-86
2023/01/08 10:54:57;;;;;;;0.20;0.10;;;;;;;;;;5046969;28;20036;-86
2023/01/08 10:57:27;;;;;;;0.20;0.10;;;;;;;;;;5045819;28;20036;-87
2023/01/08 10:59:56;;;;;;;0.20;0.10;;;;;;;;;;5034609;28;20052;-87
2023/01/08 11:02:39;;;;;;;0.20;0.10;;;;;;;;;;5042269;28;20032;-85
2023/01/08 11:05:07;;;;;;;0.20;0.10;;;;;;;;;;5055805;28;20502;-87
2023/01/08 11:07:38;;;;;;;0.20;0.10;;;;;;;;;;5047962;28;20044;-85
2023/01/08 11:10:05;;;;;;;0.20;0.10;;;;;;;;;;5044774;28;20047;-87
2023/01/08 11:12:40;;;;;;;0.20;0.10;;;;;;;;;;5062563;28;20048;-86
2023/01/08 11:15:18;;;;;;;0.20;0.10;;;;;;;;;;5073859;28;20080;-86
2023/01/08 11:17:45;;;;;;;0.20;0.10;;;;;;;;;;5052133;28;20036;-85
2023/01/08 11:20:37;;;;;;;0.20;0.10;;;;;;;;;;5070398;28;20150;-84
2023/01/08 11:23:13;;;;;;;0.22;0.22;;;;;;;;;;5071479;28;20525;-87
2023/01/08 11:25:43;;;;;;;0.20;0.10;;;;;;;;;;5069530;28;20048;-89
2023/01/08 11:28:15;;;;;;;0.20;0.10;;;;;;;;;;5057134;28;20128;-87
2023/01/08 11:30:43;;;;;;;0.20;0.10;;;;;;;;;;5040964;28;20048;-89
2023/01/08 11:33:15;;;;;;;0.20;0.10;;;;;;;;;;5038175;28;20075;-85
2023/01/08 11:35:51;;;;;;;0.20;0.10;;;;;;;;;;5047206;28;20044;-88
2023/01/08 11:38:17;;;;;;;0.20;0.10;;;;;;;;;;5054619;28;20178;-85
2023/01/08 11:40:58;;;;;;;0.20;0.10;;;;;;;;;;5039577;28;20295;-85
2023/01/08 11:43:30;;;;;;;0.20;0.10;;;;;;;;;;5037907;28;20510;-85
2023/01/08 11:46:06;;;;;;;0.20;0.10;;;;;;;;;;5045453;28;20040;-85
2023/01/08 11:48:41;;;;;;;9.52;1.00;;;;;;;;;;5037188;28;20074;-87
2023/01/08 11:51:29;;;;;;;0.20;0.10;;;;;;;;;;5043334;28;20071;-85
2023/01/08 11:54:04;;;;;;;0.20;0.10;;;;;;;;;;5072680;28;20941;-85
2023/01/08 11:56:44;;;;;;;0.20;0.10;;;;;;;;;;5076576;28;20044;-85
2023/01/08 11:59:18;;;;;;;0.20;0.10;;;;;;;;;;5071254;28;20499;-83
2023/01/08 12:01:59;;;;;;;0.20;0.10;;;;;;;;;;5040180;28;20036;-87
2023/01/08 12:04:37;;;;;;;0.20;0.10;;;;;;;;;;5055830;28;20183;-84
2023/01/08 12:07:12;;;;;;;0.20;0.10;;;;;;;;;;5060626;28;20040;-88
2023/01/08 12:09:38;;;;;;;0.20;0.10;;;;;;;;;;5058675;28;20063;-88
2023/01/08 12:12:04;;;;;;;0.20;0.10;;;;;;;;;;5042610;28;20033;-87
2023/01/08 12:14:37;;;;;;;0.20;0.10;;;;;;;;;;5042921;28;20055;-81
2023/01/08 12:17:03;;;;;;;0.20;0.10;;;;;;;;;;5074673;22;20040;-88
2023/01/08 12:19:31;;;;;;;0.20;0.10;;;;;;;;;;5064399;27;20059;-88
2023/01/08 12:22:04;;;;;;;0.20;0.10;;;;;;;;;;5078727;28;20036;-85
2023/01/08 12:24:36;;;;;;;0.20;0.10;;;;;;;;;;5065079;28;20044;-86
2023/01/08 12:27:21;;;;;;;0.20;0.10;;;;;;;;;;5078614;28;20897;-86
2023/01/08 12:30:13;;;;;;;0.20;0.10;;;;;;;;;;5064413;28;20032;-84
2023/01/08 12:33:02;;;;;;;0.20;0.10;;;;;;;;;;5033138;28;20047;-84
2023/01/08 12:35:32;;;;;;;0.20;0.10;;;;;;;;;;5053914;28;20055;-83
2023/01/08 12:37:58;;;;;;;1.23;0.20;;;;;;;;;;5074648;28;20032;-85
2023/01/08 12:40:41;;;;;;;0.20;0.10;;;;;;;;;;5067884;28;20032;-87
2023/01/08 12:43:14;;;;;;;0.20;0.10;;;;;;;;;;5066987;28;20040;-85
2023/01/08 12:45:40;;;;;;;;;;;;;;;;;;5084657;28;20042;-86
2023/01/08 12:48:27;;;;;;;0.20;0.10;;;;;;;;;;5075593;28;19919;-86
2023/01/08 12:51:08;;;;;;;0.20;0.10;;;;;;;;;;5089984;28;20074;-85
2023/01/08 12:53:53;;;;;;;0.20;0.20;;;;;;;;;;5088604;27;20042;-89
2023/01/08 12:56:38;;;;;;;0.22;0.13;;;;;;;;;;5089314;28;20044;-87
2023/01/08 12:59:23;;;;;;;0.20;0.10;;;;;;;;;;5110091;28;20035;-86
2023/01/08 13:01:49;;;;;;;0.20;0.10;;;;;;;;;;5087661;28;20482;-84
2023/01/08 13:04:15;;;;;;;0.20;0.10;;;;;;;;;;5109343;28;20024;-84
2023/01/08 13:07:00;;;;;;;0.20;0.10;;;;;;;;;;5086831;28;20039;-87
2023/01/08 13:09:27;;;;;;;1.00;0.43;;;;;;;;;;5105964;28;20044;-86
2023/01/08 13:11:55;;;;;;;0.20;0.10;;;;;;;;;;5078916;28;20374;-84
2023/01/08 13:14:21;;;;;;;0.20;0.10;;;;;;;;;;5089976;28;20093;-85
2023/01/08 13:17:00;;;;;;;0.20;0.10;;;;;;;;;;5088238;28;20046;-85
2023/01/08 13:19:27;;;;;;;0.20;0.10;;;;;;;;;;5073346;28;20100;-86
2023/01/08 13:21:54;;;;;;;0.20;0.10;;;;;;;;;;5068681;28;20258;-85
2023/01/08 13:24:37;;;;;;;2.30;0.75;;;;;;;;;;5075907;28;20040;-86
2023/01/08 13:27:30;;;;;;;0.20;0.10;;;;;;;;;;5087716;27;20495;-86
2023/01/08 13:29:57;;;;;;;0.20;0.10;;;;;;;;;;5083046;28;20047;-84
2023/01/08 13:32:24;;;;;;;0.20;0.10;;;;;;;;;;5082611;28;20040;-87
2023/01/08 13:35:00;;;;;;;0.20;0.10;;;;;;;;;;5066825;27;20299;-87
2023/01/08 13:37:26;;;;;;;0.20;0.10;;;;;;;;;;5080032;28;20438;-85
2023/01/08 13:39:52;;;;;;;0.20;0.10;;;;;;;;;;5067210;28;20090;-85
2023/01/08 13:42:21;;;;;;;0.20;0.10;;;;;;;;;;5076790;28;20394;-84
2023/01/08 13:44:52;;;;;;;0.20;0.10;;;;;;;;;;5062787;28;20518;-89
2023/01/08 13:47:20;;;;;;;0.20;0.10;;;;;;;;;;5081490;27;20035;-86
2023/01/08 13:49:50;;;;;;;0.20;0.10;;;;;;;;;;5067727;28;20043;-85
2023/01/08 13:52:33;;;;;;;0.30;0.30;;;;;;;;;;5059398;28;20044;-88
2023/01/08 13:55:11;;;;;;;0.20;0.10;;;;;;;;;;5060460;28;20035;-88
2023/01/08 13:57:43;;;;;;;0.20;0.10;;;;;;;;;;5062914;28;20048;-84
2023/01/08 14:00:17;;;;;;;0.20;0.10;;;;;;;;;;5096499;28;20051;-88
2023/01/08 14:02:48;;;;;;;0.45;0.17;;;;;;;;;;5065875;28;20036;-87
2023/01/08 14:05:19;;;;;;;0.20;0.10;;;;;;;;;;5069647;27;20043;-84
2023/01/08 14:07:45;;;;;;;0.20;0.10;;;;;;;;;;5068009;28;20463;-86
2023/01/08 14:10:19;;;;;;;0.20;0.10;;;;;;;;;;5070591;28;20056;-86
2023/01/08 14:12:48;;;;;;;0.20;0.10;;;;;;;;;;5084518;28;20050;-86
2023/01/08 14:15:20;;;;;;;0.20;0.10;;;;;;;;;;5086770;28;20055;-84
2023/01/08 14:17:48;;;;;;;0.20;0.10;;;;;;;;;;5101553;28;20055;-86
2023/01/08 14:20:19;;;;;;;0.20;0.10;;;;;;;;;;5072516;28;20031;-85
2023/01/08 14:22:54;;;;;;;0.20;0.10;;;;;;;;;;5077325;28;20520;-87
2023/01/08 14:25:20;;;;;;;0.20;0.10;;;;;;;;;;5087019;28;20161;-86
2023/01/08 14:28:00;;;;;;;0.20;0.10;;;;;;;;;;5086387;28;20043;-85
2023/01/08 14:30:26;;;;;;;0.20;0.10;;;;;;;;;;5084969;28;20043;-85
2023/01/08 14:32:53;;;;;;;0.20;0.10;;;;;;;;;;5064235;28;20394;-87
2023/01/08 14:35:22;;;;;;;0.20;0.10;;;;;;;;;;5064322;28;20241;-85
2023/01/08 14:37:48;;;;;;;0.20;0.10;;;;;;;;;;5072362;28;20040;-84
2023/01/08 14:40:16;;;;;;;0.20;0.10;;;;;;;;;;5085357;28;20440;-85
2023/01/08 14:42:45;;;;;;;0.20;0.10;;;;;;;;;;5097004;28;20115;-86
2023/01/08 14:45:33;;;;;;;0.20;0.10;;;;;;;;;;5082070;28;20036;-86
2023/01/08 14:48:02;;;;;;;0.20;0.10;;;;;;;;;;5071597;28;20313;-84
2023/01/08 14:50:29;;;;;;;0.20;0.10;;;;;;;;;;5098248;28;20542;-85
2023/01/08 14:53:03;;;;;;;0.20;0.10;;;;;;;;;;5093085;28;20047;-87
2023/01/08 14:55:30;;;;;;;0.20;0.10;;;;;;;;;;5072137;28;20122;-85